Portada
METAR-TAF:

METAR-TAF

Aeropuertos :

Aeropuerto de Almería

Almería, España

latitud: 36-51N, longitud: 002-23W, altitud: 15 m

Observación

El informe se hizo hace 21 minutos, a las 14:00 UTC
Viento 8 kt del sur, variando entre sur-sureste y oeste-suroeste
Temperatura 22°C
Humedad 73%
Presión 1012 hPa
Visibilidad 10 km o más
sin nubes por debajo de 1500 m y sin presencia de cumulonimbus.

METAR: LEAM 271400Z 19008KT 160V250 CAVOK 22/17 Q1012

Hora: 16:21 (14:21 UTC)

Pronóstico

El informe se hizo hace 6 horas y 21 minutos, a las 08:00 UTC
Pronóstico válido del 27 a las 09 UTC al 28 a las 09 UTC
Viento 6 kt del sur
Visibilidad 10 km o más
Escasas nubes a una altura de 1800 ft

TAF: LEAM 270800Z 2709/2809 19006KT 9999 FEW018 TX23/2713Z TN17/2805Z

Observaciones y pronósticos meteorológicos de más de 4000 aeropuertos (mensajes METAR y TAF).

Los puntos amarillos y rojos representan las estaciones disponibles.

Ponga el ratón en el punto deseado para ver el nombre de la estación.

Haga clic para ver las observaciones y los pronósticos meteorológicos.

Para cambiar el mapa : haga clic en los botones verdes con una cruz de color negro para hacer un zoom, en el botón verde con un guión para alejar o en las flechas verdes para mapas adyacentes.


METAR-TAF: